METAR Data

Data at: 1842 UTC 21 Nov 2018

METAR for:CYHZ (Halifax/Stanfield In, NS, CN)
Text:CYHZ 211800Z 25013KT 15SM VCSH SCT020 BKN050 02/M01 A2973 RMK SC4SC3 SLP077
Temperature: 2.0°C ( 36°F)
Dewpoint: -1.0°C ( 30°F) [RH = 80%]
Pressure (altimeter):29.73 inches Hg (1006.9 mb) [Sea level pressure: 1007.7 mb]
Winds:from the WSW (250 degrees) at 15 MPH (13 knots; 6.7 m/s)
Visibility: 15 sm ( 24 km)
Ceiling:5000 feet AGL
Clouds: scattered clouds at 2000 feet AGL, broken clouds at 5000 feet AGL
Weather:VCSH (showers in vicinity)